Time;durP1;ratioP1;P1;durP2;ratioP2;P2;SDS_P1;SDS_P2;PMS_P1;PMS_P2;Temp;Humidity;BMP_temperature;BMP_pressure;BME280_temperature;BME280_humidity;BME280_pressure;Samples;Min_cycle;Max_cycle;Signal;HPM_P1;HPM_P2
2023/05/24 00:01:02;;;;;;;10.82;2.50;;;;;;;;;;5033214;28;20096;-75
2023/05/24 00:03:29;;;;;;;2.92;1.98;;;;;;;;;;5016034;28;20025;-75
2023/05/24 00:05:56;;;;;;;7.15;2.05;;;;;;;;;;5033168;28;20029;-75
2023/05/24 00:08:22;;;;;;;6.30;3.13;;;;;;;;;;5033301;28;20030;-75
2023/05/24 00:10:48;;;;;;;5.68;2.70;;;;;;;;;;5033460;28;20033;-75
2023/05/24 00:13:14;;;;;;;4.97;2.45;;;;;;;;;;5033500;28;20030;-75
2023/05/24 00:15:40;;;;;;;8.10;2.55;;;;;;;;;;5033376;28;20033;-74
2023/05/24 00:18:06;;;;;;;6.20;2.38;;;;;;;;;;5015686;28;20128;-75
2023/05/24 00:20:32;;;;;;;4.47;2.10;;;;;;;;;;5033383;28;20040;-75
2023/05/24 00:22:58;;;;;;;6.25;2.35;;;;;;;;;;5033636;28;20363;-75
2023/05/24 00:25:24;;;;;;;8.45;2.45;;;;;;;;;;5033703;28;20025;-75
2023/05/24 00:27:50;;;;;;;6.32;2.10;;;;;;;;;;5033219;28;20052;-75
2023/05/24 00:30:16;;;;;;;6.68;2.53;;;;;;;;;;5033139;28;20025;-75
2023/05/24 00:32:43;;;;;;;5.43;2.65;;;;;;;;;;5032897;28;20535;-75
2023/05/24 00:35:09;;;;;;;7.45;2.97;;;;;;;;;;5032802;28;20114;-76
2023/05/24 00:37:36;;;;;;;4.85;2.45;;;;;;;;;;5032628;28;20026;-75
2023/05/24 00:40:03;;;;;;;6.55;2.75;;;;;;;;;;5032775;28;20041;-72
2023/05/24 00:42:29;;;;;;;5.70;2.00;;;;;;;;;;5015065;28;20334;-74
2023/05/24 00:44:55;;;;;;;4.65;2.53;;;;;;;;;;5033069;28;20037;-75
2023/05/24 00:47:22;;;;;;;6.15;2.58;;;;;;;;;;5033131;28;20083;-75
2023/05/24 00:49:48;;;;;;;5.20;2.33;;;;;;;;;;5033063;28;20013;-75
2023/05/24 00:52:14;;;;;;;6.82;2.72;;;;;;;;;;5032983;28;20037;-75
2023/05/24 00:54:40;;;;;;;8.95;2.60;;;;;;;;;;5033328;28;20025;-74
2023/05/24 00:57:06;;;;;;;5.18;2.65;;;;;;;;;;5033025;28;20025;-74
2023/05/24 00:59:33;;;;;;;5.00;2.33;;;;;;;;;;5029551;28;20075;-75
2023/05/24 01:01:59;;;;;;;4.57;2.33;;;;;;;;;;5029963;28;20038;-75
2023/05/24 01:04:26;;;;;;;5.38;2.88;;;;;;;;;;5030870;28;20028;-75
2023/05/24 01:06:56;;;;;;;5.22;2.10;;;;;;;;;;5032647;28;20389;-75
2023/05/24 01:09:33;;;;;;;4.53;2.28;;;;;;;;;;5032856;28;20087;-75
2023/05/24 01:12:04;;;;;;;3.78;2.22;;;;;;;;;;5032982;28;20029;-73
2023/05/24 01:14:31;;;;;;;6.90;2.75;;;;;;;;;;5032288;28;20498;-74
2023/05/24 01:17:09;;;;;;;5.30;2.40;;;;;;;;;;5032579;28;20039;-75
2023/05/24 01:19:42;;;;;;;8.35;2.50;;;;;;;;;;5032032;28;20106;-75
2023/05/24 01:22:10;;;;;;;7.38;2.72;;;;;;;;;;5032282;28;20033;-75
2023/05/24 01:24:55;;;;;;;7.03;2.40;;;;;;;;;;5032214;28;20112;-75
2023/05/24 01:27:22;;;;;;;4.80;2.50;;;;;;;;;;5032567;28;20029;-76
2023/05/24 01:29:52;;;;;;;4.72;2.30;;;;;;;;;;5032285;28;20021;-75
2023/05/24 01:32:19;;;;;;;7.95;2.70;;;;;;;;;;5032389;28;20026;-75
2023/05/24 01:34:45;;;;;;;6.97;2.83;;;;;;;;;;5032653;28;20017;-75
2023/05/24 01:37:11;;;;;;;6.28;2.85;;;;;;;;;;5032409;28;20040;-75
2023/05/24 01:39:37;;;;;;;5.70;2.60;;;;;;;;;;5032726;28;20045;-75
2023/05/24 01:42:06;;;;;;;6.30;2.65;;;;;;;;;;5036211;28;20493;-71
2023/05/24 01:44:33;;;;;;;6.15;2.50;;;;;;;;;;5036378;28;20520;-74
2023/05/24 01:47:04;;;;;;;5.15;2.25;;;;;;;;;;5036480;28;20030;-75
2023/05/24 01:49:34;;;;;;;6.00;2.42;;;;;;;;;;5036455;28;20021;-75
2023/05/24 01:52:03;;;;;;;5.38;2.97;;;;;;;;;;5036493;28;20104;-75
2023/05/24 01:54:32;;;;;;;3.63;2.20;;;;;;;;;;5035895;28;20100;-75
2023/05/24 01:56:59;;;;;;;5.72;2.70;;;;;;;;;;5036302;28;20132;-75
2023/05/24 01:59:27;;;;;;;3.50;2.03;;;;;;;;;;5035674;28;20025;-75
2023/05/24 02:01:54;;;;;;;9.98;2.50;;;;;;;;;;5035995;28;20038;-74
2023/05/24 02:04:20;;;;;;;5.88;2.70;;;;;;;;;;5036311;28;20067;-75
2023/05/24 02:06:46;;;;;;;5.82;2.63;;;;;;;;;;5036016;28;20105;-74
2023/05/24 02:09:12;;;;;;;8.48;2.50;;;;;;;;;;5035914;28;20021;-75
2023/05/24 02:11:38;;;;;;;6.55;2.45;;;;;;;;;;5018110;28;20109;-75
2023/05/24 02:14:04;;;;;;;11.05;3.00;;;;;;;;;;5035930;28;20535;-75
2023/05/24 02:16:32;;;;;;;4.47;3.03;;;;;;;;;;5035827;28;20026;-75
2023/05/24 02:18:58;;;;;;;5.00;2.53;;;;;;;;;;5035699;28;20029;-74
2023/05/24 02:21:24;;;;;;;7.90;2.78;;;;;;;;;;5036028;28;20038;-75
2023/05/24 02:23:50;;;;;;;8.35;2.53;;;;;;;;;;5035683;28;20037;-75
2023/05/24 02:26:20;;;;;;;10.57;3.42;;;;;;;;;;5035531;28;20437;-74
2023/05/24 02:28:47;;;;;;;4.75;2.92;;;;;;;;;;5035920;28;20469;-75
2023/05/24 02:31:13;;;;;;;8.68;3.35;;;;;;;;;;5035465;28;20072;-74
2023/05/24 02:33:39;;;;;;;8.63;3.78;;;;;;;;;;5017780;28;20026;-75
2023/05/24 02:36:05;;;;;;;6.93;3.70;;;;;;;;;;5035533;28;20100;-75
2023/05/24 02:38:31;;;;;;;9.57;4.30;;;;;;;;;;5017437;28;20018;-75
2023/05/24 02:40:58;;;;;;;9.30;4.65;;;;;;;;;;5034834;28;20037;-75
2023/05/24 02:43:24;;;;;;;7.03;4.25;;;;;;;;;;5035201;28;20025;-75
2023/05/24 02:45:50;;;;;;;7.38;4.80;;;;;;;;;;5034924;28;20056;-75
2023/05/24 02:48:16;;;;;;;8.50;4.63;;;;;;;;;;5035829;28;20350;-73
2023/05/24 02:50:42;;;;;;;9.18;4.40;;;;;;;;;;5016485;28;20413;-74
2023/05/24 02:53:08;;;;;;;9.02;4.63;;;;;;;;;;5034459;28;20532;-75
2023/05/24 02:55:34;;;;;;;11.60;4.70;;;;;;;;;;5035070;28;20029;-76
2023/05/24 02:58:00;;;;;;;12.15;4.45;;;;;;;;;;5035164;28;20489;-76
2023/05/24 03:00:26;;;;;;;8.55;4.13;;;;;;;;;;5036050;28;20048;-75
2023/05/24 03:02:54;;;;;;;8.68;3.85;;;;;;;;;;5043594;28;20021;-75
2023/05/24 03:05:20;;;;;;;9.77;4.00;;;;;;;;;;5040991;28;20112;-75
2023/05/24 03:07:46;;;;;;;10.20;4.00;;;;;;;;;;5034752;28;20021;-74
2023/05/24 03:10:12;;;;;;;7.60;3.58;;;;;;;;;;5034829;28;20061;-75
2023/05/24 03:12:38;;;;;;;7.82;3.78;;;;;;;;;;5016951;28;20505;-75
2023/05/24 03:15:05;;;;;;;15.30;4.10;;;;;;;;;;5034810;28;20029;-72
2023/05/24 03:17:31;;;;;;;4.93;3.03;;;;;;;;;;5034735;28;20462;-76
2023/05/24 03:19:57;;;;;;;4.75;3.08;;;;;;;;;;5034456;28;20064;-75
2023/05/24 03:22:23;;;;;;;9.18;2.95;;;;;;;;;;5034578;28;20078;-75
2023/05/24 03:24:49;;;;;;;9.75;2.80;;;;;;;;;;5034217;28;20037;-75
2023/05/24 03:27:15;;;;;;;8.20;2.97;;;;;;;;;;5034107;28;20428;-75
2023/05/24 03:29:41;;;;;;;7.45;3.63;;;;;;;;;;5034309;28;20390;-75
2023/05/24 03:32:07;;;;;;;5.22;3.45;;;;;;;;;;5034454;28;20380;-74
2023/05/24 03:34:33;;;;;;;9.02;3.50;;;;;;;;;;5034487;28;20033;-74
2023/05/24 03:36:59;;;;;;;8.30;3.72;;;;;;;;;;5034236;28;20489;-75
2023/05/24 03:39:25;;;;;;;10.45;3.75;;;;;;;;;;5033744;28;20079;-75
2023/05/24 03:41:51;;;;;;;8.57;3.92;;;;;;;;;;5033935;28;20517;-75
2023/05/24 03:44:18;;;;;;;7.40;3.67;;;;;;;;;;5034070;28;20025;-75
2023/05/24 03:46:44;;;;;;;8.73;3.97;;;;;;;;;;5016143;28;20053;-75
2023/05/24 03:49:10;;;;;;;7.03;3.42;;;;;;;;;;5016041;28;20075;-75
2023/05/24 03:51:36;;;;;;;11.30;3.50;;;;;;;;;;5033972;28;20033;-75
2023/05/24 03:54:02;;;;;;;7.75;3.40;;;;;;;;;;5033878;28;20036;-73
2023/05/24 03:56:28;;;;;;;6.60;3.67;;;;;;;;;;5015919;28;20492;-75
2023/05/24 03:58:56;;;;;;;7.97;3.38;;;;;;;;;;5033941;28;20048;-75
2023/05/24 04:01:22;;;;;;;6.32;3.72;;;;;;;;;;5033597;28;20083;-75
2023/05/24 04:03:50;;;;;;;6.90;3.33;;;;;;;;;;5033091;28;20032;-75
2023/05/24 04:06:16;;;;;;;5.75;3.88;;;;;;;;;;5033448;28;20477;-74
2023/05/24 04:08:42;;;;;;;10.23;4.05;;;;;;;;;;5033405;28;20079;-74
2023/05/24 04:11:08;;;;;;;7.72;3.55;;;;;;;;;;5033505;28;20032;-74
2023/05/24 04:13:34;;;;;;;7.25;4.13;;;;;;;;;;5033757;28;20022;-75
2023/05/24 04:16:01;;;;;;;14.63;3.70;;;;;;;;;;5033822;28;20025;-74
2023/05/24 04:18:27;;;;;;;13.57;3.80;;;;;;;;;;5033436;28;20029;-75
2023/05/24 04:20:53;;;;;;;6.88;3.78;;;;;;;;;;5033534;28;20481;-73
2023/05/24 04:23:19;;;;;;;7.82;3.55;;;;;;;;;;5033256;28;20056;-74
2023/05/24 04:25:45;;;;;;;11.95;4.05;;;;;;;;;;5033611;28;20028;-75
2023/05/24 04:28:11;;;;;;;6.00;3.67;;;;;;;;;;5033312;28;20021;-75
2023/05/24 04:30:37;;;;;;;9.25;4.03;;;;;;;;;;5015492;28;20378;-75
2023/05/24 04:33:04;;;;;;;6.95;4.07;;;;;;;;;;5015702;28;20435;-74
2023/05/24 04:35:30;;;;;;;7.35;4.47;;;;;;;;;;5015598;28;20389;-75
2023/05/24 04:37:56;;;;;;;10.40;4.80;;;;;;;;;;5015495;28;20378;-75
2023/05/24 04:40:22;;;;;;;9.35;4.72;;;;;;;;;;5033060;28;20037;-75
2023/05/24 04:42:49;;;;;;;7.32;4.18;;;;;;;;;;5032923;28;20468;-74
2023/05/24 04:45:15;;;;;;;7.45;5.00;;;;;;;;;;5033042;28;20092;-75
2023/05/24 04:47:42;;;;;;;8.52;4.32;;;;;;;;;;5033160;28;20056;-75
2023/05/24 04:50:08;;;;;;;11.10;4.70;;;;;;;;;;5033304;28;20026;-75
2023/05/24 04:52:35;;;;;;;10.25;4.45;;;;;;;;;;5032753;28;20024;-75
2023/05/24 04:55:02;;;;;;;9.27;4.97;;;;;;;;;;5032882;28;20036;-75
2023/05/24 04:57:28;;;;;;;7.82;4.38;;;;;;;;;;5015153;28;20048;-76
2023/05/24 04:59:55;;;;;;;8.77;5.10;;;;;;;;;;5032868;28;20409;-75
2023/05/24 05:02:21;;;;;;;8.20;4.88;;;;;;;;;;5032424;28;20026;-73
2023/05/24 05:04:47;;;;;;;7.43;4.85;;;;;;;;;;5032696;28;20101;-75
2023/05/24 05:07:13;;;;;;;8.10;4.53;;;;;;;;;;5032597;28;20466;-74
2023/05/24 05:09:39;;;;;;;9.45;5.43;;;;;;;;;;5032749;28;20032;-74
2023/05/24 05:12:06;;;;;;;10.55;4.78;;;;;;;;;;5032889;28;20032;-75
2023/05/24 05:14:32;;;;;;;10.63;5.07;;;;;;;;;;5031902;28;20366;-75
2023/05/24 05:16:58;;;;;;;6.80;4.65;;;;;;;;;;5032346;28;20025;-75
2023/05/24 05:19:24;;;;;;;7.63;4.53;;;;;;;;;;5032093;28;20484;-75
2023/05/24 05:21:50;;;;;;;9.20;5.15;;;;;;;;;;5032374;28;20112;-75
2023/05/24 05:24:17;;;;;;;8.05;4.47;;;;;;;;;;5032243;28;20029;-74
2023/05/24 05:26:43;;;;;;;11.73;5.05;;;;;;;;;;5032227;28;20030;-75
2023/05/24 05:29:09;;;;;;;8.13;4.78;;;;;;;;;;5032559;28;20018;-75
2023/05/24 05:31:35;;;;;;;8.13;5.07;;;;;;;;;;5032081;28;20033;-75
2023/05/24 05:34:01;;;;;;;7.03;4.78;;;;;;;;;;5032681;28;20382;-75
2023/05/24 05:36:27;;;;;;;8.43;5.22;;;;;;;;;;5032358;28;20030;-75
2023/05/24 05:38:54;;;;;;;7.93;4.30;;;;;;;;;;5032429;28;20478;-75
2023/05/24 05:41:20;;;;;;;7.47;4.55;;;;;;;;;;5032029;28;20044;-75
2023/05/24 05:43:47;;;;;;;7.28;4.30;;;;;;;;;;5014740;28;20137;-74
2023/05/24 05:46:14;;;;;;;10.00;4.90;;;;;;;;;;5031775;28;20421;-75
2023/05/24 05:48:40;;;;;;;8.63;5.22;;;;;;;;;;5032006;28;20389;-75
2023/05/24 05:51:06;;;;;;;9.60;5.15;;;;;;;;;;5031595;28;20045;-76
2023/05/24 05:53:35;;;;;;;9.18;4.63;;;;;;;;;;5031875;28;20035;-76
2023/05/24 05:56:02;;;;;;;12.85;4.97;;;;;;;;;;5031883;28;20052;-76
2023/05/24 05:58:28;;;;;;;12.05;5.45;;;;;;;;;;5013909;28;20037;-75
2023/05/24 06:00:54;;;;;;;12.50;5.18;;;;;;;;;;5031513;28;20091;-74
2023/05/24 06:03:20;;;;;;;8.98;4.90;;;;;;;;;;5031447;28;20481;-75
2023/05/24 06:05:46;;;;;;;10.07;5.25;;;;;;;;;;5014331;28;20355;-75
2023/05/24 06:08:12;;;;;;;14.27;5.70;;;;;;;;;;5032204;28;20036;-74
2023/05/24 06:10:38;;;;;;;8.65;4.80;;;;;;;;;;5032083;28;20473;-73
2023/05/24 06:13:04;;;;;;;11.80;5.47;;;;;;;;;;5032240;28;20033;-74
2023/05/24 06:15:32;;;;;;;11.75;5.22;;;;;;;;;;5032124;28;20022;-73
2023/05/24 06:17:58;;;;;;;12.27;5.50;;;;;;;;;;5029718;28;20036;-73
2023/05/24 06:20:24;;;;;;;11.02;5.10;;;;;;;;;;5031580;28;20436;-73
2023/05/24 06:22:51;;;;;;;8.40;4.80;;;;;;;;;;5031743;28;20045;-75
2023/05/24 06:25:19;;;;;;;10.32;5.38;;;;;;;;;;5030597;28;20501;-75
2023/05/24 06:27:46;;;;;;;14.57;6.00;;;;;;;;;;5034520;28;20490;-74
2023/05/24 06:30:12;;;;;;;16.23;5.60;;;;;;;;;;5034951;28;20025;-75
2023/05/24 06:32:38;;;;;;;13.93;5.28;;;;;;;;;;5034858;28;20079;-78
2023/05/24 06:35:04;;;;;;;11.60;4.82;;;;;;;;;;5035221;28;20029;-75
2023/05/24 06:37:32;;;;;;;10.85;4.72;;;;;;;;;;5035086;28;20466;-75
2023/05/24 06:39:58;;;;;;;9.63;4.70;;;;;;;;;;5016702;28;20033;-74
2023/05/24 06:42:25;;;;;;;7.53;4.68;;;;;;;;;;5016865;28;20504;-73
2023/05/24 06:44:51;;;;;;;9.10;4.65;;;;;;;;;;5034676;28;20041;-74
2023/05/24 06:47:17;;;;;;;8.48;5.13;;;;;;;;;;5034694;28;20506;-75
2023/05/24 06:49:43;;;;;;;10.15;4.95;;;;;;;;;;5034845;28;20025;-75
2023/05/24 06:52:09;;;;;;;9.70;5.22;;;;;;;;;;5034831;28;20026;-75
2023/05/24 06:54:36;;;;;;;10.93;5.38;;;;;;;;;;5035173;28;20026;-75
2023/05/24 06:57:02;;;;;;;7.53;5.30;;;;;;;;;;5035453;28;20075;-74
2023/05/24 06:59:28;;;;;;;13.52;5.38;;;;;;;;;;5035185;28;20025;-75
2023/05/24 07:01:56;;;;;;;9.40;5.75;;;;;;;;;;5034627;28;20030;-75
2023/05/24 07:04:25;;;;;;;9.57;4.72;;;;;;;;;;5034920;28;20041;-75
2023/05/24 07:06:52;;;;;;;8.00;5.05;;;;;;;;;;5034677;28;20029;-78
2023/05/24 07:09:18;;;;;;;7.30;5.20;;;;;;;;;;5034774;28;20033;-74
2023/05/24 07:11:44;;;;;;;8.95;5.47;;;;;;;;;;5034780;28;20108;-82
2023/05/24 07:14:11;;;;;;;9.43;5.22;;;;;;;;;;5035074;28;20036;-80
2023/05/24 07:16:37;;;;;;;6.93;5.63;;;;;;;;;;5035144;28;20061;-80
2023/05/24 07:19:03;;;;;;;11.25;5.90;;;;;;;;;;5035294;28;20079;-80
2023/05/24 07:21:29;;;;;;;11.77;5.82;;;;;;;;;;5034939;28;20034;-81
2023/05/24 07:23:55;;;;;;;8.80;6.10;;;;;;;;;;5034929;28;20474;-80
2023/05/24 07:26:22;;;;;;;8.07;5.90;;;;;;;;;;5035013;28;20470;-81
2023/05/24 07:28:48;;;;;;;11.15;6.28;;;;;;;;;;5034077;28;20032;-80
2023/05/24 07:31:15;;;;;;;13.77;6.43;;;;;;;;;;5034001;28;20025;-77
2023/05/24 07:33:41;;;;;;;12.57;6.82;;;;;;;;;;5033683;28;20502;-82
2023/05/24 07:36:08;;;;;;;9.50;6.35;;;;;;;;;;5033673;28;20032;-82
2023/05/24 07:38:35;;;;;;;16.65;6.75;;;;;;;;;;5032733;28;20029;-82
2023/05/24 07:41:05;;;;;;;8.15;5.93;;;;;;;;;;5034004;28;20042;-82
2023/05/24 07:43:31;;;;;;;10.68;5.82;;;;;;;;;;5034774;28;20022;-82
2023/05/24 07:45:57;;;;;;;12.73;6.75;;;;;;;;;;5066855;22;20101;-82
2023/05/24 07:48:23;;;;;;;12.90;8.32;;;;;;;;;;5074620;28;20077;-82
2023/05/24 07:50:51;;;;;;;11.18;6.88;;;;;;;;;;5074782;28;20472;-81
2023/05/24 07:53:17;;;;;;;9.15;5.63;;;;;;;;;;5074467;28;20021;-82
2023/05/24 07:55:43;;;;;;;11.70;5.43;;;;;;;;;;5074389;28;20024;-82
2023/05/24 07:58:10;;;;;;;11.43;6.05;;;;;;;;;;5074670;28;20464;-78
2023/05/24 08:00:37;;;;;;;11.98;6.20;;;;;;;;;;5074320;28;20129;-81
2023/05/24 08:03:04;;;;;;;6.63;5.70;;;;;;;;;;5074123;28;20034;-81
2023/05/24 08:05:30;;;;;;;9.80;6.30;;;;;;;;;;5073160;28;20089;-81
2023/05/24 08:07:56;;;;;;;13.38;7.78;;;;;;;;;;5073505;28;20031;-79
2023/05/24 08:10:23;;;;;;;8.18;6.07;;;;;;;;;;5073994;28;20468;-73
2023/05/24 08:12:53;;;;;;;12.45;5.60;;;;;;;;;;5074247;28;20074;-82
2023/05/24 08:15:19;;;;;;;8.38;5.38;;;;;;;;;;5073719;28;20025;-80
2023/05/24 08:17:45;;;;;;;8.32;5.47;;;;;;;;;;5072685;28;20029;-78
2023/05/24 08:20:15;;;;;;;9.68;5.95;;;;;;;;;;5061096;28;20036;-81
2023/05/24 08:22:42;;;;;;;6.53;5.60;;;;;;;;;;5071269;28;20027;-82
2023/05/24 08:25:08;;;;;;;9.82;5.82;;;;;;;;;;5073236;28;20086;-83
2023/05/24 08:27:34;;;;;;;8.65;5.50;;;;;;;;;;5073703;28;20048;-84
2023/05/24 08:30:01;;;;;;;7.45;4.85;;;;;;;;;;5073331;28;20448;-86
2023/05/24 08:32:27;;;;;;;8.77;5.15;;;;;;;;;;5073751;28;20388;-84
2023/05/24 08:34:54;;;;;;;7.18;4.80;;;;;;;;;;5073315;28;20056;-86
2023/05/24 08:37:21;;;;;;;7.72;4.95;;;;;;;;;;5073658;28;20353;-85
2023/05/24 08:39:47;;;;;;;7.22;5.25;;;;;;;;;;5073267;28;20107;-84
2023/05/24 08:42:13;;;;;;;8.05;5.00;;;;;;;;;;5073544;28;20666;-85
2023/05/24 08:44:52;;;;;;;8.77;4.90;;;;;;;;;;5073069;28;20020;-85
2023/05/24 08:47:22;;;;;;;8.18;5.43;;;;;;;;;;5073189;28;20036;-86
2023/05/24 08:49:49;;;;;;;9.38;5.90;;;;;;;;;;5073592;28;20024;-82
2023/05/24 08:52:16;;;;;;;8.70;5.53;;;;;;;;;;5073749;28;20020;-87
2023/05/24 08:54:42;;;;;;;6.63;5.13;;;;;;;;;;5073275;28;20476;-79
2023/05/24 08:57:10;;;;;;;9.20;5.63;;;;;;;;;;5073209;28;20484;-89
2023/05/24 08:59:38;;;;;;;9.50;5.03;;;;;;;;;;5073613;28;20032;-89
2023/05/24 09:02:05;;;;;;;7.15;5.07;;;;;;;;;;5073677;28;20472;-86
2023/05/24 09:04:31;;;;;;;9.45;5.07;;;;;;;;;;5073558;28;20029;-89
2023/05/24 09:06:58;;;;;;;7.57;5.60;;;;;;;;;;5073600;28;20507;-89
2023/05/24 09:09:27;;;;;;;9.02;4.45;;;;;;;;;;5073548;28;20468;-88
2023/05/24 09:11:56;;;;;;;8.43;4.55;;;;;;;;;;5073445;28;20021;-80
2023/05/24 09:14:22;;;;;;;9.35;5.00;;;;;;;;;;5072709;28;20024;-81
2023/05/24 09:16:48;;;;;;;8.90;4.75;;;;;;;;;;5073070;28;20361;-81
2023/05/24 09:19:15;;;;;;;7.93;4.80;;;;;;;;;;5072826;28;20073;-81
2023/05/24 09:21:42;;;;;;;7.35;4.40;;;;;;;;;;5072727;28;20113;-80
2023/05/24 09:24:10;;;;;;;6.63;4.30;;;;;;;;;;5072850;28;20023;-80
2023/05/24 09:26:36;;;;;;;9.45;4.65;;;;;;;;;;5072944;28;20032;-81
2023/05/24 09:29:06;;;;;;;7.20;4.63;;;;;;;;;;5072652;28;20020;-81
2023/05/24 09:31:33;;;;;;;9.60;4.30;;;;;;;;;;5072429;28;20108;-83
2023/05/24 09:33:59;;;;;;;4.78;4.05;;;;;;;;;;5072757;28;20021;-83
2023/05/24 09:36:28;;;;;;;5.22;4.18;;;;;;;;;;5072735;28;20048;-83
2023/05/24 09:39:08;;;;;;;5.78;4.47;;;;;;;;;;5072728;28;20064;-82
2023/05/24 09:41:34;;;;;;;9.00;4.40;;;;;;;;;;5072796;28;20055;-83
2023/05/24 09:44:02;;;;;;;4.60;3.90;;;;;;;;;;5072798;28;20056;-83
2023/05/24 09:46:28;;;;;;;7.53;4.63;;;;;;;;;;5072448;28;20051;-83
2023/05/24 09:49:06;;;;;;;5.03;3.95;;;;;;;;;;5072600;28;20107;-83
2023/05/24 09:51:36;;;;;;;7.00;4.30;;;;;;;;;;5054394;28;20024;-79
2023/05/24 09:54:02;;;;;;;6.15;4.50;;;;;;;;;;5072546;28;20098;-81
2023/05/24 09:56:29;;;;;;;4.57;3.63;;;;;;;;;;5072634;28;20055;-79
2023/05/24 09:58:56;;;;;;;10.93;5.00;;;;;;;;;;5072467;28;20029;-79
2023/05/24 10:01:24;;;;;;;8.48;4.10;;;;;;;;;;5056423;28;20060;-80
2023/05/24 10:03:54;;;;;;;6.65;3.80;;;;;;;;;;5058851;28;20376;-80
2023/05/24 10:06:20;;;;;;;4.80;3.70;;;;;;;;;;5076121;28;20025;-79
2023/05/24 10:08:50;;;;;;;5.25;4.03;;;;;;;;;;5076669;28;20048;-79
2023/05/24 10:11:16;;;;;;;7.63;4.30;;;;;;;;;;5076403;28;20031;-79
2023/05/24 10:13:43;;;;;;;10.05;3.85;;;;;;;;;;5076404;28;20028;-79
2023/05/24 10:16:09;;;;;;;4.57;3.50;;;;;;;;;;5076307;28;20025;-79
2023/05/24 10:18:36;;;;;;;4.47;3.92;;;;;;;;;;5076061;28;20044;-79
2023/05/24 10:21:03;;;;;;;6.47;3.72;;;;;;;;;;5075716;28;20071;-78
2023/05/24 10:23:31;;;;;;;6.43;3.80;;;;;;;;;;5076119;28;20443;-77
2023/05/24 10:26:03;;;;;;;5.47;3.58;;;;;;;;;;5075961;28;20048;-80
2023/05/24 10:28:29;;;;;;;;;;;;;;;;;;5076532;28;20021;-80
2023/05/24 10:31:01;;;;;;;7.53;3.70;;;;;;;;;;5075893;28;19904;-79
2023/05/24 10:33:27;;;;;;;6.00;3.35;;;;;;;;;;5075595;28;20020;-79
2023/05/24 10:35:54;;;;;;;4.88;3.10;;;;;;;;;;5075811;28;20040;-78
2023/05/24 10:38:22;;;;;;;4.28;3.40;;;;;;;;;;5075450;28;20020;-78
2023/05/24 10:40:48;;;;;;;4.13;3.22;;;;;;;;;;5057540;28;20041;-82
2023/05/24 10:43:16;;;;;;;5.10;3.40;;;;;;;;;;5075572;28;20031;-79
2023/05/24 10:45:42;;;;;;;6.18;3.47;;;;;;;;;;5075583;28;20040;-79
2023/05/24 10:48:09;;;;;;;7.07;3.22;;;;;;;;;;5075635;28;20464;-81
2023/05/24 10:50:35;;;;;;;5.50;3.03;;;;;;;;;;5075250;28;20044;-82
2023/05/24 10:53:17;;;;;;;5.40;3.17;;;;;;;;;;5075352;28;20415;-76
2023/05/24 10:55:52;;;;;;;5.80;3.75;;;;;;;;;;5075210;28;20016;-76
2023/05/24 10:58:19;;;;;;;5.07;3.40;;;;;;;;;;5075371;28;20032;-75
2023/05/24 11:00:45;;;;;;;4.00;3.17;;;;;;;;;;5074432;28;20037;-75
2023/05/24 11:03:13;;;;;;;4.90;3.13;;;;;;;;;;5075630;28;20100;-75
2023/05/24 11:05:48;;;;;;;3.40;2.92;;;;;;;;;;5075421;28;20116;-75
2023/05/24 11:08:23;;;;;;;5.95;3.10;;;;;;;;;;5075438;28;20074;-75
2023/05/24 11:10:50;;;;;;;3.97;2.95;;;;;;;;;;5075437;28;20035;-75
2023/05/24 11:13:19;;;;;;;4.85;2.90;;;;;;;;;;5074045;28;20462;-75
2023/05/24 11:15:52;;;;;;;5.38;2.95;;;;;;;;;;5074506;28;20020;-75
2023/05/24 11:18:21;;;;;;;5.68;3.13;;;;;;;;;;5075443;28;20533;-75
2023/05/24 11:20:47;;;;;;;6.68;3.42;;;;;;;;;;5074563;28;20047;-78
2023/05/24 11:23:14;;;;;;;4.65;3.75;;;;;;;;;;5074966;28;20024;-76
2023/05/24 11:25:41;;;;;;;5.95;3.63;;;;;;;;;;5075116;28;20021;-76
2023/05/24 11:28:11;;;;;;;8.60;3.10;;;;;;;;;;5075084;28;20024;-75
2023/05/24 11:30:40;;;;;;;4.50;2.80;;;;;;;;;;5056823;28;20024;-75
2023/05/24 11:33:17;;;;;;;5.32;3.05;;;;;;;;;;5074960;28;20482;-79
2023/05/24 11:35:43;;;;;;;6.15;3.42;;;;;;;;;;5074827;28;20052;-77
2023/05/24 11:38:12;;;;;;;6.28;3.28;;;;;;;;;;5074761;28;20028;-78
2023/05/24 11:40:43;;;;;;;5.20;3.60;;;;;;;;;;5074882;28;20035;-78
2023/05/24 11:43:09;;;;;;;5.90;3.13;;;;;;;;;;5075060;28;20484;-78
2023/05/24 11:45:35;;;;;;;7.07;3.55;;;;;;;;;;5074470;28;20047;-79
2023/05/24 11:48:05;;;;;;;6.75;2.90;;;;;;;;;;5074531;28;20067;-79
2023/05/24 11:50:31;;;;;;;4.00;2.90;;;;;;;;;;5074974;28;20380;-78
2023/05/24 11:53:04;;;;;;;4.25;3.00;;;;;;;;;;5056570;28;20033;-78
2023/05/24 11:55:31;;;;;;;5.40;3.17;;;;;;;;;;5074479;28;20484;-78
2023/05/24 11:57:58;;;;;;;10.00;3.30;;;;;;;;;;5074253;28;20020;-77
2023/05/24 12:00:25;;;;;;;6.63;3.38;;;;;;;;;;5074365;28;20064;-79
2023/05/24 12:02:51;;;;;;;6.03;3.40;;;;;;;;;;5056096;28;20429;-79
2023/05/24 12:05:18;;;;;;;5.30;3.25;;;;;;;;;;5074257;28;20083;-80
2023/05/24 12:07:47;;;;;;;9.23;3.20;;;;;;;;;;5074067;28;20028;-78
2023/05/24 12:10:16;;;;;;;11.38;3.58;;;;;;;;;;5073912;28;20027;-77
2023/05/24 12:12:43;;;;;;;3.67;3.17;;;;;;;;;;5074099;28;20032;-80
2023/05/24 12:15:10;;;;;;;5.47;3.47;;;;;;;;;;5074010;28;20020;-79
2023/05/24 12:17:36;;;;;;;5.65;3.80;;;;;;;;;;5073783;28;20032;-78
2023/05/24 12:20:04;;;;;;;6.88;3.38;;;;;;;;;;5073685;28;20033;-78
2023/05/24 12:22:31;;;;;;;7.63;3.45;;;;;;;;;;5055533;28;20039;-78
2023/05/24 12:24:57;;;;;;;7.53;3.83;;;;;;;;;;5055367;28;20415;-79
2023/05/24 12:27:29;;;;;;;7.15;3.90;;;;;;;;;;5073421;28;20071;-79
2023/05/24 12:29:55;;;;;;;4.78;3.58;;;;;;;;;;5073353;28;20025;-77
2023/05/24 12:32:21;;;;;;;6.53;3.67;;;;;;;;;;5073514;28;20040;-77
2023/05/24 12:34:49;;;;;;;5.20;3.50;;;;;;;;;;5073646;28;20032;-78
2023/05/24 12:37:15;;;;;;;7.95;3.70;;;;;;;;;;5073406;28;20037;-79
2023/05/24 12:39:41;;;;;;;4.70;3.45;;;;;;;;;;5073200;28;20025;-78
2023/05/24 12:42:07;;;;;;;7.32;3.67;;;;;;;;;;5073416;28;20040;-78
2023/05/24 12:44:34;;;;;;;6.75;3.60;;;;;;;;;;5072746;28;20021;-79
2023/05/24 12:47:01;;;;;;;6.90;3.75;;;;;;;;;;5073128;28;20024;-80
2023/05/24 12:49:27;;;;;;;5.35;3.50;;;;;;;;;;5072790;28;20468;-78
2023/05/24 12:51:55;;;;;;;7.53;3.70;;;;;;;;;;5055088;28;20059;-80
2023/05/24 12:54:28;;;;;;;5.00;3.85;;;;;;;;;;5054984;28;20024;-80
2023/05/24 12:56:54;;;;;;;5.85;3.85;;;;;;;;;;5073027;28;20028;-80
2023/05/24 12:59:21;;;;;;;4.97;3.90;;;;;;;;;;5073116;28;20028;-81
2023/05/24 13:01:50;;;;;;;9.18;4.30;;;;;;;;;;5072973;28;20473;-77
2023/05/24 13:04:21;;;;;;;4.55;3.67;;;;;;;;;;5073221;28;20515;-79
2023/05/24 13:06:47;;;;;;;8.63;4.00;;;;;;;;;;5073207;28;20029;-77
2023/05/24 13:09:14;;;;;;;5.43;4.43;;;;;;;;;;5073128;28;20024;-79
2023/05/24 13:11:41;;;;;;;5.05;4.00;;;;;;;;;;5054735;28;20023;-80
2023/05/24 13:14:07;;;;;;;8.35;4.75;;;;;;;;;;5055074;28;20033;-77
2023/05/24 13:16:34;;;;;;;5.80;4.13;;;;;;;;;;5072748;28;20022;-78
2023/05/24 13:19:00;;;;;;;7.22;4.05;;;;;;;;;;5072744;28;20028;-78
2023/05/24 13:21:26;;;;;;;5.47;4.00;;;;;;;;;;5072733;28;20028;-77
2023/05/24 13:23:52;;;;;;;4.38;3.67;;;;;;;;;;5054833;28;20052;-79
2023/05/24 13:26:19;;;;;;;5.40;4.22;;;;;;;;;;5073063;28;20491;-78
2023/05/24 13:28:45;;;;;;;5.82;3.80;;;;;;;;;;5072726;28;20107;-78
2023/05/24 13:31:11;;;;;;;5.18;3.92;;;;;;;;;;5072935;28;20031;-78
2023/05/24 13:33:37;;;;;;;9.65;4.07;;;;;;;;;;5072759;28;20120;-81
2023/05/24 13:36:03;;;;;;;4.60;3.67;;;;;;;;;;5072224;28;20082;-79
2023/05/24 13:38:29;;;;;;;7.75;4.13;;;;;;;;;;5072888;28;20039;-80
2023/05/24 13:40:55;;;;;;;4.82;3.58;;;;;;;;;;5072064;28;20586;-79
2023/05/24 13:43:21;;;;;;;6.97;4.20;;;;;;;;;;5072834;28;20024;-80
2023/05/24 13:45:47;;;;;;;5.90;3.83;;;;;;;;;;5072680;28;20080;-79
2023/05/24 13:48:14;;;;;;;4.45;3.33;;;;;;;;;;5072877;28;20032;-78
2023/05/24 13:50:40;;;;;;;6.30;3.28;;;;;;;;;;5071427;28;20035;-79
2023/05/24 13:53:06;;;;;;;6.55;3.67;;;;;;;;;;5072185;28;20024;-80
2023/05/24 13:55:34;;;;;;;8.35;3.58;;;;;;;;;;5071526;28;20027;-80
2023/05/24 13:58:03;;;;;;;4.80;3.30;;;;;;;;;;5071900;28;20150;-80
2023/05/24 14:00:29;;;;;;;7.32;3.53;;;;;;;;;;5072510;28;20047;-80
2023/05/24 14:02:56;;;;;;;6.68;3.55;;;;;;;;;;5072722;28;20017;-79
2023/05/24 14:05:23;;;;;;;7.38;4.43;;;;;;;;;;5072450;28;20396;-80
2023/05/24 14:07:49;;;;;;;6.45;3.70;;;;;;;;;;5072393;28;20414;-79
2023/05/24 14:10:15;;;;;;;7.57;3.85;;;;;;;;;;5071912;28;20469;-79
2023/05/24 14:12:42;;;;;;;7.70;3.70;;;;;;;;;;5071377;28;20078;-79
2023/05/24 14:15:08;;;;;;;5.45;3.88;;;;;;;;;;5072556;28;20029;-80
2023/05/24 14:17:34;;;;;;;4.93;3.85;;;;;;;;;;5072344;28;20538;-79
2023/05/24 14:20:00;;;;;;;6.40;3.85;;;;;;;;;;5072270;28;20033;-79
2023/05/24 14:22:28;;;;;;;4.72;3.75;;;;;;;;;;5072069;28;20484;-80
2023/05/24 14:24:54;;;;;;;7.93;4.00;;;;;;;;;;5072406;28;20112;-80
2023/05/24 14:27:20;;;;;;;5.82;4.00;;;;;;;;;;5072314;28;20024;-79
2023/05/24 14:29:46;;;;;;;4.70;3.40;;;;;;;;;;5072268;28;20048;-79
2023/05/24 14:32:12;;;;;;;5.10;3.55;;;;;;;;;;5072225;28;20102;-79
2023/05/24 14:34:38;;;;;;;5.65;3.20;;;;;;;;;;5072212;28;20444;-78
2023/05/24 14:37:05;;;;;;;5.03;3.35;;;;;;;;;;5072041;28;20487;-79
2023/05/24 14:39:31;;;;;;;9.48;3.50;;;;;;;;;;5072092;28;20024;-78